sensor_id;sensor_type;location;lat;lon;timestamp;P1;durP1;ratioP1;P2;durP2;ratioP2
13122;SDS011;6627;50.920;12.050;2023-09-30T00:00:19;6.10;;;4.40;;
13122;SDS011;6627;50.920;12.050;2023-09-30T00:02:46;5.83;;;4.53;;
13122;SDS011;6627;50.920;12.050;2023-09-30T00:05:13;6.03;;;5.20;;
13122;SDS011;6627;50.920;12.050;2023-09-30T00:07:41;7.03;;;5.13;;
13122;SDS011;6627;50.920;12.050;2023-09-30T00:10:11;6.10;;;5.13;;
13122;SDS011;6627;50.920;12.050;2023-09-30T00:12:38;9.40;;;5.30;;
13122;SDS011;6627;50.920;12.050;2023-09-30T00:15:07;8.80;;;5.20;;
13122;SDS011;6627;50.920;12.050;2023-09-30T00:17:35;8.33;;;5.73;;
13122;SDS011;6627;50.920;12.050;2023-09-30T00:20:07;7.47;;;5.63;;
13122;SDS011;6627;50.920;12.050;2023-09-30T00:22:36;7.90;;;5.67;;
13122;SDS011;6627;50.920;12.050;2023-09-30T00:25:07;6.50;;;5.73;;
13122;SDS011;6627;50.920;12.050;2023-09-30T00:27:35;8.43;;;6.03;;
13122;SDS011;6627;50.920;12.050;2023-09-30T00:30:03;7.73;;;5.87;;
13122;SDS011;6627;50.920;12.050;2023-09-30T00:32:33;8.87;;;6.90;;
13122;SDS011;6627;50.920;12.050;2023-09-30T00:35:01;7.10;;;6.23;;
13122;SDS011;6627;50.920;12.050;2023-09-30T00:37:28;7.23;;;6.53;;
13122;SDS011;6627;50.920;12.050;2023-09-30T00:39:55;8.57;;;6.73;;
13122;SDS011;6627;50.920;12.050;2023-09-30T00:42:23;7.87;;;6.53;;
13122;SDS011;6627;50.920;12.050;2023-09-30T00:44:50;7.87;;;6.93;;
13122;SDS011;6627;50.920;12.050;2023-09-30T00:47:18;8.57;;;6.73;;
13122;SDS011;6627;50.920;12.050;2023-09-30T00:49:48;6.63;;;6.03;;
13122;SDS011;6627;50.920;12.050;2023-09-30T00:52:18;9.63;;;7.00;;
13122;SDS011;6627;50.920;12.050;2023-09-30T00:54:46;8.13;;;7.07;;
13122;SDS011;6627;50.920;12.050;2023-09-30T00:57:15;10.70;;;7.80;;
13122;SDS011;6627;50.920;12.050;2023-09-30T00:59:46;8.03;;;7.33;;
13122;SDS011;6627;50.920;12.050;2023-09-30T01:02:16;8.53;;;7.73;;
13122;SDS011;6627;50.920;12.050;2023-09-30T01:04:44;11.70;;;8.60;;
13122;SDS011;6627;50.920;12.050;2023-09-30T01:07:13;11.30;;;7.97;;
13122;SDS011;6627;50.920;12.050;2023-09-30T01:09:41;9.63;;;8.53;;
13122;SDS011;6627;50.920;12.050;2023-09-30T01:12:08;9.10;;;8.20;;
13122;SDS011;6627;50.920;12.050;2023-09-30T01:14:36;9.50;;;8.30;;
13122;SDS011;6627;50.920;12.050;2023-09-30T01:17:04;8.90;;;7.73;;
13122;SDS011;6627;50.920;12.050;2023-09-30T01:19:34;11.23;;;7.70;;
13122;SDS011;6627;50.920;12.050;2023-09-30T01:22:03;8.37;;;7.43;;
13122;SDS011;6627;50.920;12.050;2023-09-30T01:24:38;9.83;;;8.00;;
13122;SDS011;6627;50.920;12.050;2023-09-30T01:27:06;10.10;;;7.83;;
13122;SDS011;6627;50.920;12.050;2023-09-30T01:29:34;8.20;;;7.27;;
13122;SDS011;6627;50.920;12.050;2023-09-30T01:32:03;9.93;;;7.63;;
13122;SDS011;6627;50.920;12.050;2023-09-30T01:34:33;7.70;;;6.77;;
13122;SDS011;6627;50.920;12.050;2023-09-30T01:37:01;10.67;;;7.07;;
13122;SDS011;6627;50.920;12.050;2023-09-30T01:39:34;9.10;;;7.30;;
13122;SDS011;6627;50.920;12.050;2023-09-30T01:42:01;9.23;;;7.13;;
13122;SDS011;6627;50.920;12.050;2023-09-30T01:44:28;10.23;;;7.00;;
13122;SDS011;6627;50.920;12.050;2023-09-30T01:46:56;11.57;;;7.20;;
13122;SDS011;6627;50.920;12.050;2023-09-30T01:49:24;8.00;;;6.30;;
13122;SDS011;6627;50.920;12.050;2023-09-30T01:51:54;10.00;;;6.47;;
13122;SDS011;6627;50.920;12.050;2023-09-30T01:54:23;9.20;;;6.43;;
13122;SDS011;6627;50.920;12.050;2023-09-30T01:56:50;8.20;;;6.40;;
13122;SDS011;6627;50.920;12.050;2023-09-30T01:59:17;7.80;;;5.50;;
13122;SDS011;6627;50.920;12.050;2023-09-30T02:01:45;10.47;;;5.70;;
13122;SDS011;6627;50.920;12.050;2023-09-30T02:04:12;9.93;;;5.67;;
13122;SDS011;6627;50.920;12.050;2023-09-30T02:06:40;11.03;;;5.83;;
13122;SDS011;6627;50.920;12.050;2023-09-30T02:09:08;11.13;;;4.90;;
13122;SDS011;6627;50.920;12.050;2023-09-30T02:11:39;9.23;;;4.87;;
13122;SDS011;6627;50.920;12.050;2023-09-30T02:14:09;7.67;;;4.63;;
13122;SDS011;6627;50.920;12.050;2023-09-30T02:16:39;9.10;;;5.03;;
13122;SDS011;6627;50.920;12.050;2023-09-30T02:19:06;15.37;;;5.30;;
13122;SDS011;6627;50.920;12.050;2023-09-30T02:21:36;9.83;;;5.00;;
13122;SDS011;6627;50.920;12.050;2023-09-30T02:24:04;8.50;;;5.40;;
13122;SDS011;6627;50.920;12.050;2023-09-30T02:26:32;10.90;;;5.30;;
13122;SDS011;6627;50.920;12.050;2023-09-30T02:29:01;8.77;;;5.13;;
13122;SDS011;6627;50.920;12.050;2023-09-30T02:31:28;10.93;;;5.50;;
13122;SDS011;6627;50.920;12.050;2023-09-30T02:33:56;9.03;;;5.10;;
13122;SDS011;6627;50.920;12.050;2023-09-30T02:36:23;10.37;;;5.43;;
13122;SDS011;6627;50.920;12.050;2023-09-30T02:38:50;9.63;;;5.50;;
13122;SDS011;6627;50.920;12.050;2023-09-30T02:41:18;9.50;;;4.83;;
13122;SDS011;6627;50.920;12.050;2023-09-30T02:43:45;11.47;;;5.10;;
13122;SDS011;6627;50.920;12.050;2023-09-30T02:46:14;9.80;;;5.20;;
13122;SDS011;6627;50.920;12.050;2023-09-30T02:48:43;9.00;;;5.17;;
13122;SDS011;6627;50.920;12.050;2023-09-30T02:51:11;10.63;;;5.20;;
13122;SDS011;6627;50.920;12.050;2023-09-30T02:53:38;8.33;;;5.23;;
13122;SDS011;6627;50.920;12.050;2023-09-30T02:56:06;6.90;;;4.90;;
13122;SDS011;6627;50.920;12.050;2023-09-30T02:58:33;6.97;;;5.03;;
13122;SDS011;6627;50.920;12.050;2023-09-30T03:01:01;9.90;;;4.80;;
13122;SDS011;6627;50.920;12.050;2023-09-30T03:03:30;12.77;;;5.27;;
13122;SDS011;6627;50.920;12.050;2023-09-30T03:05:59;9.57;;;4.87;;
13122;SDS011;6627;50.920;12.050;2023-09-30T03:08:26;9.03;;;5.00;;
13122;SDS011;6627;50.920;12.050;2023-09-30T03:10:53;13.80;;;5.40;;
13122;SDS011;6627;50.920;12.050;2023-09-30T03:13:21;11.60;;;5.13;;
13122;SDS011;6627;50.920;12.050;2023-09-30T03:15:48;12.00;;;5.27;;
13122;SDS011;6627;50.920;12.050;2023-09-30T03:18:17;10.27;;;5.50;;
13122;SDS011;6627;50.920;12.050;2023-09-30T03:20:50;10.23;;;5.00;;
13122;SDS011;6627;50.920;12.050;2023-09-30T03:23:22;9.43;;;4.57;;
13122;SDS011;6627;50.920;12.050;2023-09-30T03:25:55;8.03;;;4.70;;
13122;SDS011;6627;50.920;12.050;2023-09-30T03:28:23;8.83;;;4.97;;
13122;SDS011;6627;50.920;12.050;2023-09-30T03:30:50;9.00;;;4.57;;
13122;SDS011;6627;50.920;12.050;2023-09-30T03:33:18;10.07;;;4.17;;
13122;SDS011;6627;50.920;12.050;2023-09-30T03:35:44;11.93;;;4.80;;
13122;SDS011;6627;50.920;12.050;2023-09-30T03:38:13;7.70;;;4.47;;
13122;SDS011;6627;50.920;12.050;2023-09-30T03:40:41;8.57;;;4.30;;
13122;SDS011;6627;50.920;12.050;2023-09-30T03:43:13;10.73;;;5.03;;
13122;SDS011;6627;50.920;12.050;2023-09-30T03:45:40;7.73;;;3.90;;
13122;SDS011;6627;50.920;12.050;2023-09-30T03:48:08;11.30;;;4.60;;
13122;SDS011;6627;50.920;12.050;2023-09-30T03:50:36;8.67;;;4.50;;
13122;SDS011;6627;50.920;12.050;2023-09-30T03:53:05;8.07;;;4.30;;
13122;SDS011;6627;50.920;12.050;2023-09-30T03:55:34;9.63;;;5.20;;
13122;SDS011;6627;50.920;12.050;2023-09-30T03:58:02;11.47;;;5.03;;
13122;SDS011;6627;50.920;12.050;2023-09-30T04:00:30;6.73;;;4.13;;
13122;SDS011;6627;50.920;12.050;2023-09-30T04:02:57;8.10;;;4.50;;
13122;SDS011;6627;50.920;12.050;2023-09-30T04:05:24;8.70;;;4.43;;
13122;SDS011;6627;50.920;12.050;2023-09-30T04:07:55;6.37;;;4.13;;
13122;SDS011;6627;50.920;12.050;2023-09-30T04:10:23;10.30;;;4.53;;
13122;SDS011;6627;50.920;12.050;2023-09-30T04:12:51;8.83;;;4.60;;
13122;SDS011;6627;50.920;12.050;2023-09-30T04:15:19;10.13;;;4.50;;
13122;SDS011;6627;50.920;12.050;2023-09-30T04:17:47;6.77;;;4.37;;
13122;SDS011;6627;50.920;12.050;2023-09-30T04:20:15;7.63;;;4.20;;
13122;SDS011;6627;50.920;12.050;2023-09-30T04:22:46;9.73;;;5.00;;
13122;SDS011;6627;50.920;12.050;2023-09-30T04:25:14;8.60;;;5.07;;
13122;SDS011;6627;50.920;12.050;2023-09-30T04:27:42;10.90;;;4.80;;
13122;SDS011;6627;50.920;12.050;2023-09-30T04:30:12;12.97;;;5.53;;
13122;SDS011;6627;50.920;12.050;2023-09-30T04:32:41;10.93;;;5.33;;
13122;SDS011;6627;50.920;12.050;2023-09-30T04:35:09;10.00;;;4.93;;
13122;SDS011;6627;50.920;12.050;2023-09-30T04:37:38;8.47;;;5.50;;
13122;SDS011;6627;50.920;12.050;2023-09-30T04:40:05;9.57;;;5.10;;
13122;SDS011;6627;50.920;12.050;2023-09-30T04:42:41;9.37;;;5.03;;
13122;SDS011;6627;50.920;12.050;2023-09-30T04:45:10;11.87;;;5.70;;
13122;SDS011;6627;50.920;12.050;2023-09-30T04:47:41;10.37;;;5.63;;
13122;SDS011;6627;50.920;12.050;2023-09-30T04:50:27;12.83;;;5.20;;
13122;SDS011;6627;50.920;12.050;2023-09-30T04:52:56;11.80;;;5.10;;
13122;SDS011;6627;50.920;12.050;2023-09-30T04:55:24;12.67;;;5.90;;
13122;SDS011;6627;50.920;12.050;2023-09-30T04:57:51;14.67;;;5.50;;
13122;SDS011;6627;50.920;12.050;2023-09-30T05:00:20;8.40;;;5.23;;
13122;SDS011;6627;50.920;12.050;2023-09-30T05:02:50;9.97;;;5.40;;
13122;SDS011;6627;50.920;12.050;2023-09-30T05:05:19;14.20;;;5.23;;
13122;SDS011;6627;50.920;12.050;2023-09-30T05:07:47;15.17;;;5.47;;
13122;SDS011;6627;50.920;12.050;2023-09-30T05:10:14;15.90;;;5.80;;
13122;SDS011;6627;50.920;12.050;2023-09-30T05:12:42;9.57;;;5.60;;
13122;SDS011;6627;50.920;12.050;2023-09-30T05:15:12;9.27;;;5.17;;
13122;SDS011;6627;50.920;12.050;2023-09-30T05:17:42;10.33;;;5.43;;
13122;SDS011;6627;50.920;12.050;2023-09-30T05:20:10;15.80;;;5.57;;
13122;SDS011;6627;50.920;12.050;2023-09-30T05:22:38;14.93;;;5.63;;
13122;SDS011;6627;50.920;12.050;2023-09-30T05:25:08;12.37;;;5.73;;
13122;SDS011;6627;50.920;12.050;2023-09-30T05:27:36;9.70;;;5.43;;
13122;SDS011;6627;50.920;12.050;2023-09-30T05:30:04;16.30;;;5.50;;
13122;SDS011;6627;50.920;12.050;2023-09-30T05:32:33;9.27;;;5.00;;
13122;SDS011;6627;50.920;12.050;2023-09-30T05:35:05;12.63;;;5.33;;
13122;SDS011;6627;50.920;12.050;2023-09-30T05:37:38;8.80;;;5.57;;
13122;SDS011;6627;50.920;12.050;2023-09-30T05:40:06;12.93;;;5.30;;
13122;SDS011;6627;50.920;12.050;2023-09-30T05:42:42;11.20;;;5.10;;
13122;SDS011;6627;50.920;12.050;2023-09-30T05:45:11;10.67;;;5.30;;
13122;SDS011;6627;50.920;12.050;2023-09-30T05:47:39;12.00;;;5.43;;
13122;SDS011;6627;50.920;12.050;2023-09-30T05:50:09;11.57;;;5.57;;
13122;SDS011;6627;50.920;12.050;2023-09-30T05:52:40;10.00;;;5.53;;
13122;SDS011;6627;50.920;12.050;2023-09-30T05:55:09;9.97;;;5.50;;
13122;SDS011;6627;50.920;12.050;2023-09-30T05:57:39;11.10;;;5.23;;
13122;SDS011;6627;50.920;12.050;2023-09-30T06:00:11;12.13;;;5.60;;
13122;SDS011;6627;50.920;12.050;2023-09-30T06:02:46;12.83;;;5.73;;
13122;SDS011;6627;50.920;12.050;2023-09-30T06:05:15;13.50;;;6.00;;
13122;SDS011;6627;50.920;12.050;2023-09-30T06:07:44;10.30;;;5.23;;
13122;SDS011;6627;50.920;12.050;2023-09-30T06:10:12;15.63;;;6.17;;
13122;SDS011;6627;50.920;12.050;2023-09-30T06:12:41;9.13;;;5.63;;
13122;SDS011;6627;50.920;12.050;2023-09-30T06:15:09;10.63;;;5.50;;
13122;SDS011;6627;50.920;12.050;2023-09-30T06:17:38;8.87;;;5.37;;
13122;SDS011;6627;50.920;12.050;2023-09-30T06:20:06;11.03;;;5.37;;
13122;SDS011;6627;50.920;12.050;2023-09-30T06:22:43;12.47;;;5.57;;
13122;SDS011;6627;50.920;12.050;2023-09-30T06:25:11;12.47;;;5.80;;
13122;SDS011;6627;50.920;12.050;2023-09-30T06:27:42;11.10;;;5.13;;
13122;SDS011;6627;50.920;12.050;2023-09-30T06:30:10;10.47;;;5.50;;
13122;SDS011;6627;50.920;12.050;2023-09-30T06:32:40;11.70;;;5.83;;
13122;SDS011;6627;50.920;12.050;2023-09-30T06:35:08;10.60;;;5.30;;
13122;SDS011;6627;50.920;12.050;2023-09-30T06:37:36;12.70;;;5.50;;
13122;SDS011;6627;50.920;12.050;2023-09-30T06:40:07;13.90;;;5.33;;
13122;SDS011;6627;50.920;12.050;2023-09-30T06:42:38;9.23;;;4.80;;
13122;SDS011;6627;50.920;12.050;2023-09-30T06:45:07;10.93;;;4.40;;
13122;SDS011;6627;50.920;12.050;2023-09-30T06:47:35;8.00;;;5.03;;
13122;SDS011;6627;50.920;12.050;2023-09-30T06:50:05;13.37;;;5.20;;
13122;SDS011;6627;50.920;12.050;2023-09-30T06:52:38;11.23;;;5.33;;
13122;SDS011;6627;50.920;12.050;2023-09-30T06:55:10;8.33;;;5.17;;
13122;SDS011;6627;50.920;12.050;2023-09-30T06:57:39;10.67;;;4.60;;
13122;SDS011;6627;50.920;12.050;2023-09-30T07:00:07;9.70;;;4.93;;
13122;SDS011;6627;50.920;12.050;2023-09-30T07:02:37;7.47;;;4.80;;
13122;SDS011;6627;50.920;12.050;2023-09-30T07:05:07;8.93;;;4.23;;
13122;SDS011;6627;50.920;12.050;2023-09-30T07:07:35;9.67;;;4.37;;
13122;SDS011;6627;50.920;12.050;2023-09-30T07:10:03;7.90;;;3.77;;
13122;SDS011;6627;50.920;12.050;2023-09-30T07:12:34;6.67;;;4.03;;
13122;SDS011;6627;50.920;12.050;2023-09-30T07:15:02;9.50;;;4.40;;
13122;SDS011;6627;50.920;12.050;2023-09-30T07:17:30;9.00;;;4.27;;
13122;SDS011;6627;50.920;12.050;2023-09-30T07:19:59;10.37;;;4.27;;
13122;SDS011;6627;50.920;12.050;2023-09-30T07:22:26;9.97;;;4.23;;
13122;SDS011;6627;50.920;12.050;2023-09-30T07:24:54;7.90;;;4.10;;
13122;SDS011;6627;50.920;12.050;2023-09-30T07:27:21;8.03;;;4.40;;
13122;SDS011;6627;50.920;12.050;2023-09-30T07:29:50;7.67;;;3.70;;
13122;SDS011;6627;50.920;12.050;2023-09-30T07:32:17;11.03;;;4.20;;
13122;SDS011;6627;50.920;12.050;2023-09-30T07:34:45;9.00;;;3.63;;
13122;SDS011;6627;50.920;12.050;2023-09-30T07:37:13;10.77;;;3.80;;
13122;SDS011;6627;50.920;12.050;2023-09-30T07:39:43;8.20;;;3.70;;
13122;SDS011;6627;50.920;12.050;2023-09-30T07:42:10;8.87;;;3.83;;
13122;SDS011;6627;50.920;12.050;2023-09-30T07:44:38;10.30;;;3.63;;
13122;SDS011;6627;50.920;12.050;2023-09-30T07:47:06;7.13;;;3.97;;
13122;SDS011;6627;50.920;12.050;2023-09-30T07:49:34;6.23;;;3.53;;
13122;SDS011;6627;50.920;12.050;2023-09-30T07:52:01;7.57;;;4.07;;
13122;SDS011;6627;50.920;12.050;2023-09-30T07:54:29;7.03;;;3.43;;
13122;SDS011;6627;50.920;12.050;2023-09-30T07:56:56;9.50;;;3.97;;
13122;SDS011;6627;50.920;12.050;2023-09-30T07:59:24;9.17;;;3.53;;
13122;SDS011;6627;50.920;12.050;2023-09-30T08:01:52;12.73;;;3.60;;
13122;SDS011;6627;50.920;12.050;2023-09-30T08:04:20;11.37;;;3.80;;
13122;SDS011;6627;50.920;12.050;2023-09-30T08:06:48;9.97;;;3.73;;
13122;SDS011;6627;50.920;12.050;2023-09-30T08:09:16;9.80;;;3.63;;
13122;SDS011;6627;50.920;12.050;2023-09-30T08:11:44;9.50;;;4.07;;
13122;SDS011;6627;50.920;12.050;2023-09-30T08:14:11;9.60;;;4.23;;
13122;SDS011;6627;50.920;12.050;2023-09-30T08:16:38;9.77;;;4.53;;
13122;SDS011;6627;50.920;12.050;2023-09-30T08:19:06;12.87;;;5.20;;
13122;SDS011;6627;50.920;12.050;2023-09-30T08:21:36;9.53;;;4.70;;
13122;SDS011;6627;50.920;12.050;2023-09-30T08:24:04;13.60;;;5.20;;
13122;SDS011;6627;50.920;12.050;2023-09-30T08:26:33;14.67;;;6.83;;
13122;SDS011;6627;50.920;12.050;2023-09-30T08:29:01;15.40;;;7.20;;
13122;SDS011;6627;50.920;12.050;2023-09-30T08:31:29;12.87;;;6.40;;
13122;SDS011;6627;50.920;12.050;2023-09-30T08:33:56;14.00;;;6.60;;
13122;SDS011;6627;50.920;12.050;2023-09-30T08:36:24;10.27;;;6.10;;
13122;SDS011;6627;50.920;12.050;2023-09-30T08:38:53;11.33;;;5.63;;
13122;SDS011;6627;50.920;12.050;2023-09-30T08:41:24;12.27;;;5.27;;
13122;SDS011;6627;50.920;12.050;2023-09-30T08:43:59;12.93;;;4.47;;
13122;SDS011;6627;50.920;12.050;2023-09-30T08:46:30;9.50;;;4.60;;
13122;SDS011;6627;50.920;12.050;2023-09-30T08:49:00;10.47;;;3.73;;
13122;SDS011;6627;50.920;12.050;2023-09-30T08:51:30;7.03;;;3.37;;
13122;SDS011;6627;50.920;12.050;2023-09-30T08:54:00;9.27;;;4.37;;
13122;SDS011;6627;50.920;12.050;2023-09-30T08:56:30;11.47;;;4.43;;
13122;SDS011;6627;50.920;12.050;2023-09-30T08:59:00;10.53;;;3.80;;
13122;SDS011;6627;50.920;12.050;2023-09-30T09:01:30;7.43;;;3.20;;
13122;SDS011;6627;50.920;12.050;2023-09-30T09:03:58;11.73;;;3.67;;
13122;SDS011;6627;50.920;12.050;2023-09-30T09:06:26;10.87;;;3.20;;
13122;SDS011;6627;50.920;12.050;2023-09-30T09:08:53;9.17;;;3.23;;
13122;SDS011;6627;50.920;12.050;2023-09-30T09:11:22;16.20;;;3.07;;
13122;SDS011;6627;50.920;12.050;2023-09-30T09:13:51;9.07;;;3.30;;
13122;SDS011;6627;50.920;12.050;2023-09-30T09:16:22;6.10;;;2.83;;
13122;SDS011;6627;50.920;12.050;2023-09-30T09:18:51;14.40;;;3.43;;
13122;SDS011;6627;50.920;12.050;2023-09-30T09:21:19;9.73;;;3.63;;
13122;SDS011;6627;50.920;12.050;2023-09-30T09:23:49;11.97;;;3.13;;
13122;SDS011;6627;50.920;12.050;2023-09-30T09:26:29;9.03;;;3.17;;
13122;SDS011;6627;50.920;12.050;2023-09-30T09:29:00;10.13;;;3.43;;
13122;SDS011;6627;50.920;12.050;2023-09-30T09:31:31;11.83;;;3.10;;
13122;SDS011;6627;50.920;12.050;2023-09-30T09:34:00;8.70;;;2.73;;
13122;SDS011;6627;50.920;12.050;2023-09-30T09:36:38;10.23;;;3.27;;
13122;SDS011;6627;50.920;12.050;2023-09-30T09:39:07;8.67;;;2.63;;
13122;SDS011;6627;50.920;12.050;2023-09-30T09:41:37;7.13;;;3.17;;
13122;SDS011;6627;50.920;12.050;2023-09-30T09:44:17;6.03;;;2.70;;
13122;SDS011;6627;50.920;12.050;2023-09-30T09:46:47;8.13;;;2.83;;
13122;SDS011;6627;50.920;12.050;2023-09-30T09:49:15;8.27;;;2.60;;
13122;SDS011;6627;50.920;12.050;2023-09-30T09:51:45;7.40;;;2.53;;
13122;SDS011;6627;50.920;12.050;2023-09-30T09:54:15;9.47;;;2.77;;
13122;SDS011;6627;50.920;12.050;2023-09-30T09:56:45;5.93;;;2.80;;
13122;SDS011;6627;50.920;12.050;2023-09-30T09:59:12;7.40;;;2.43;;
13122;SDS011;6627;50.920;12.050;2023-09-30T10:01:40;8.10;;;2.50;;
13122;SDS011;6627;50.920;12.050;2023-09-30T10:04:10;4.47;;;2.30;;
13122;SDS011;6627;50.920;12.050;2023-09-30T10:06:40;9.67;;;2.93;;
13122;SDS011;6627;50.920;12.050;2023-09-30T10:09:13;5.13;;;2.30;;
13122;SDS011;6627;50.920;12.050;2023-09-30T10:11:45;6.73;;;2.53;;
13122;SDS011;6627;50.920;12.050;2023-09-30T10:14:22;4.70;;;2.10;;
13122;SDS011;6627;50.920;12.050;2023-09-30T10:16:58;7.07;;;2.53;;
13122;SDS011;6627;50.920;12.050;2023-09-30T10:19:25;8.70;;;2.60;;
13122;SDS011;6627;50.920;12.050;2023-09-30T10:24:50;8.47;;;2.60;;
13122;SDS011;6627;50.920;12.050;2023-09-30T10:27:34;7.90;;;2.80;;
13122;SDS011;6627;50.920;12.050;2023-09-30T10:30:06;6.13;;;2.73;;
13122;SDS011;6627;50.920;12.050;2023-09-30T10:35:42;7.57;;;2.50;;
13122;SDS011;6627;50.920;12.050;2023-09-30T10:41:09;6.73;;;2.37;;
13122;SDS011;6627;50.920;12.050;2023-09-30T10:43:39;8.57;;;2.53;;
13122;SDS011;6627;50.920;12.050;2023-09-30T10:51:59;8.00;;;2.77;;
13122;SDS011;6627;50.920;12.050;2023-09-30T10:54:27;9.40;;;2.50;;
13122;SDS011;6627;50.920;12.050;2023-09-30T10:56:58;3.80;;;1.93;;
13122;SDS011;6627;50.920;12.050;2023-09-30T10:59:30;5.63;;;2.53;;
13122;SDS011;6627;50.920;12.050;2023-09-30T11:02:00;5.33;;;2.50;;
13122;SDS011;6627;50.920;12.050;2023-09-30T11:04:28;7.90;;;2.80;;
13122;SDS011;6627;50.920;12.050;2023-09-30T11:06:56;8.43;;;2.60;;
13122;SDS011;6627;50.920;12.050;2023-09-30T11:09:27;5.17;;;2.37;;
13122;SDS011;6627;50.920;12.050;2023-09-30T11:11:55;9.63;;;2.47;;
13122;SDS011;6627;50.920;12.050;2023-09-30T11:14:23;6.40;;;2.50;;
13122;SDS011;6627;50.920;12.050;2023-09-30T11:16:54;4.90;;;2.10;;
13122;SDS011;6627;50.920;12.050;2023-09-30T11:19:23;5.97;;;2.50;;
13122;SDS011;6627;50.920;12.050;2023-09-30T11:21:51;5.90;;;2.10;;
13122;SDS011;6627;50.920;12.050;2023-09-30T11:24:21;6.80;;;2.50;;
13122;SDS011;6627;50.920;12.050;2023-09-30T11:26:52;6.53;;;2.60;;
13122;SDS011;6627;50.920;12.050;2023-09-30T11:29:21;5.13;;;1.93;;
13122;SDS011;6627;50.920;12.050;2023-09-30T11:31:49;5.40;;;2.20;;
13122;SDS011;6627;50.920;12.050;2023-09-30T11:34:18;5.87;;;2.10;;
13122;SDS011;6627;50.920;12.050;2023-09-30T11:36:47;5.60;;;2.40;;
13122;SDS011;6627;50.920;12.050;2023-09-30T11:39:21;4.77;;;2.10;;
13122;SDS011;6627;50.920;12.050;2023-09-30T11:41:50;6.43;;;2.10;;
13122;SDS011;6627;50.920;12.050;2023-09-30T11:44:18;6.90;;;2.37;;
13122;SDS011;6627;50.920;12.050;2023-09-30T11:46:49;5.80;;;2.50;;
13122;SDS011;6627;50.920;12.050;2023-09-30T11:49:27;5.53;;;2.37;;
13122;SDS011;6627;50.920;12.050;2023-09-30T11:51:58;6.77;;;2.43;;
13122;SDS011;6627;50.920;12.050;2023-09-30T11:54:29;5.43;;;1.80;;
13122;SDS011;6627;50.920;12.050;2023-09-30T11:56:58;5.83;;;2.53;;
13122;SDS011;6627;50.920;12.050;2023-09-30T11:59:27;5.27;;;2.00;;
13122;SDS011;6627;50.920;12.050;2023-09-30T12:01:54;4.43;;;2.00;;
13122;SDS011;6627;50.920;12.050;2023-09-30T12:04:22;5.30;;;2.40;;
13122;SDS011;6627;50.920;12.050;2023-09-30T12:06:51;7.50;;;1.77;;
13122;SDS011;6627;50.920;12.050;2023-09-30T12:09:19;5.07;;;1.90;;
13122;SDS011;6627;50.920;12.050;2023-09-30T12:11:51;5.37;;;2.13;;
13122;SDS011;6627;50.920;12.050;2023-09-30T12:14:19;2.90;;;1.73;;
13122;SDS011;6627;50.920;12.050;2023-09-30T12:16:47;4.90;;;1.93;;
13122;SDS011;6627;50.920;12.050;2023-09-30T12:19:16;3.33;;;2.00;;
13122;SDS011;6627;50.920;12.050;2023-09-30T12:21:44;7.77;;;2.93;;
13122;SDS011;6627;50.920;12.050;2023-09-30T12:24:15;8.23;;;2.67;;
13122;SDS011;6627;50.920;12.050;2023-09-30T12:26:45;4.27;;;2.47;;
13122;SDS011;6627;50.920;12.050;2023-09-30T12:29:13;4.93;;;2.23;;
13122;SDS011;6627;50.920;12.050;2023-09-30T12:31:42;4.00;;;1.97;;
13122;SDS011;6627;50.920;12.050;2023-09-30T12:34:10;6.57;;;2.03;;
13122;SDS011;6627;50.920;12.050;2023-09-30T12:36:39;5.97;;;2.10;;
13122;SDS011;6627;50.920;12.050;2023-09-30T12:39:07;5.83;;;1.93;;
13122;SDS011;6627;50.920;12.050;2023-09-30T12:41:38;6.97;;;2.17;;
13122;SDS011;6627;50.920;12.050;2023-09-30T12:44:08;4.97;;;2.00;;
13122;SDS011;6627;50.920;12.050;2023-09-30T12:46:37;5.33;;;2.23;;
13122;SDS011;6627;50.920;12.050;2023-09-30T12:49:05;5.20;;;2.00;;
13122;SDS011;6627;50.920;12.050;2023-09-30T12:51:32;6.27;;;1.80;;
13122;SDS011;6627;50.920;12.050;2023-09-30T12:54:01;4.93;;;2.00;;
13122;SDS011;6627;50.920;12.050;2023-09-30T12:56:28;5.43;;;2.07;;
13122;SDS011;6627;50.920;12.050;2023-09-30T12:58:58;4.83;;;2.10;;
13122;SDS011;6627;50.920;12.050;2023-09-30T13:01:26;9.23;;;3.20;;
13122;SDS011;6627;50.920;12.050;2023-09-30T13:03:54;3.83;;;1.57;;
13122;SDS011;6627;50.920;12.050;2023-09-30T13:06:21;5.10;;;2.07;;
13122;SDS011;6627;50.920;12.050;2023-09-30T13:08:49;6.13;;;2.20;;
13122;SDS011;6627;50.920;12.050;2023-09-30T13:11:16;5.00;;;2.03;;
13122;SDS011;6627;50.920;12.050;2023-09-30T13:13:44;4.60;;;1.80;;
13122;SDS011;6627;50.920;12.050;2023-09-30T13:16:12;5.37;;;2.10;;
13122;SDS011;6627;50.920;12.050;2023-09-30T13:18:40;4.47;;;2.03;;
13122;SDS011;6627;50.920;12.050;2023-09-30T13:21:07;3.90;;;2.10;;
13122;SDS011;6627;50.920;12.050;2023-09-30T13:23:37;6.97;;;2.43;;
13122;SDS011;6627;50.920;12.050;2023-09-30T13:26:04;4.83;;;2.20;;
13122;SDS011;6627;50.920;12.050;2023-09-30T13:28:32;5.40;;;1.80;;
13122;SDS011;6627;50.920;12.050;2023-09-30T13:30:59;6.73;;;1.97;;
13122;SDS011;6627;50.920;12.050;2023-09-30T13:33:28;3.67;;;1.90;;
13122;SDS011;6627;50.920;12.050;2023-09-30T13:35:56;4.67;;;2.10;;
13122;SDS011;6627;50.920;12.050;2023-09-30T13:38:23;3.73;;;2.00;;
13122;SDS011;6627;50.920;12.050;2023-09-30T13:40:51;4.37;;;2.10;;
13122;SDS011;6627;50.920;12.050;2023-09-30T13:43:18;5.57;;;2.43;;
13122;SDS011;6627;50.920;12.050;2023-09-30T13:45:46;5.23;;;1.77;;
13122;SDS011;6627;50.920;12.050;2023-09-30T13:48:14;4.43;;;1.77;;
13122;SDS011;6627;50.920;12.050;2023-09-30T13:50:42;4.97;;;1.90;;
13122;SDS011;6627;50.920;12.050;2023-09-30T13:53:10;4.70;;;1.77;;
13122;SDS011;6627;50.920;12.050;2023-09-30T13:55:37;6.47;;;2.03;;
13122;SDS011;6627;50.920;12.050;2023-09-30T13:58:06;4.57;;;2.07;;
13122;SDS011;6627;50.920;12.050;2023-09-30T14:00:33;3.80;;;2.07;;
13122;SDS011;6627;50.920;12.050;2023-09-30T14:03:02;4.30;;;1.90;;
13122;SDS011;6627;50.920;12.050;2023-09-30T14:05:30;4.87;;;2.00;;
13122;SDS011;6627;50.920;12.050;2023-09-30T14:07:59;4.33;;;1.90;;
13122;SDS011;6627;50.920;12.050;2023-09-30T14:10:27;4.47;;;1.73;;
13122;SDS011;6627;50.920;12.050;2023-09-30T14:12:54;5.30;;;2.07;;
13122;SDS011;6627;50.920;12.050;2023-09-30T14:15:23;4.60;;;1.80;;
13122;SDS011;6627;50.920;12.050;2023-09-30T14:17:53;6.33;;;2.23;;
13122;SDS011;6627;50.920;12.050;2023-09-30T14:20:21;4.10;;;1.80;;
13122;SDS011;6627;50.920;12.050;2023-09-30T14:22:48;4.60;;;2.10;;
13122;SDS011;6627;50.920;12.050;2023-09-30T14:25:18;3.77;;;1.73;;
13122;SDS011;6627;50.920;12.050;2023-09-30T14:27:46;5.43;;;1.70;;
13122;SDS011;6627;50.920;12.050;2023-09-30T14:30:13;4.53;;;1.80;;
13122;SDS011;6627;50.920;12.050;2023-09-30T14:32:41;6.10;;;2.20;;
13122;SDS011;6627;50.920;12.050;2023-09-30T14:35:09;3.53;;;1.67;;
13122;SDS011;6627;50.920;12.050;2023-09-30T14:37:36;5.83;;;2.30;;
13122;SDS011;6627;50.920;12.050;2023-09-30T14:40:04;4.67;;;1.77;;
13122;SDS011;6627;50.920;12.050;2023-09-30T14:42:37;5.80;;;1.70;;
13122;SDS011;6627;50.920;12.050;2023-09-30T14:45:05;3.27;;;1.70;;
13122;SDS011;6627;50.920;12.050;2023-09-30T14:47:34;4.73;;;1.83;;
13122;SDS011;6627;50.920;12.050;2023-09-30T14:50:01;2.93;;;1.60;;
13122;SDS011;6627;50.920;12.050;2023-09-30T14:52:28;4.90;;;2.07;;
13122;SDS011;6627;50.920;12.050;2023-09-30T14:54:56;3.43;;;1.67;;
13122;SDS011;6627;50.920;12.050;2023-09-30T14:57:23;5.80;;;2.27;;
13122;SDS011;6627;50.920;12.050;2023-09-30T14:59:53;3.53;;;1.73;;
13122;SDS011;6627;50.920;12.050;2023-09-30T15:02:20;5.37;;;2.07;;
13122;SDS011;6627;50.920;12.050;2023-09-30T15:04:49;3.83;;;1.90;;
13122;SDS011;6627;50.920;12.050;2023-09-30T15:07:16;3.53;;;1.70;;